createdAt,value
2022-12-15T00:02:26.204Z,17.42
2022-12-15T00:05:19.573Z,16.10
2022-12-15T00:08:46.277Z,17.60
2022-12-15T00:11:41.057Z,17.67
2022-12-15T00:14:49.903Z,16.27
2022-12-15T00:18:02.435Z,15.35
2022-12-15T00:21:11.574Z,15.32
2022-12-15T00:24:27.822Z,21.67
2022-12-15T00:27:15.279Z,15.63
2022-12-15T00:30:16.068Z,18.85
2022-12-15T00:33:03.670Z,13.93
2022-12-15T00:36:10.387Z,16.92
2022-12-15T00:38:45.794Z,17.73
2022-12-15T00:41:56.662Z,18.08
2022-12-15T00:44:48.709Z,16.55
2022-12-15T00:47:40.162Z,16.30
2022-12-15T00:50:50.131Z,14.88
2022-12-15T00:53:38.215Z,16.50
2022-12-15T00:56:25.687Z,15.32
2022-12-15T00:59:16.702Z,16.48
2022-12-15T01:02:05.834Z,17.20
2022-12-15T01:05:00.210Z,17.00
2022-12-15T01:08:10.766Z,18.33
2022-12-15T01:11:19.910Z,16.65
2022-12-15T01:14:07.380Z,14.77
2022-12-15T01:16:56.292Z,17.45
2022-12-15T01:19:46.689Z,15.20
2022-12-15T01:22:40.619Z,16.65
2022-12-15T01:25:28.598Z,15.18
2022-12-15T01:28:12.680Z,18.00
2022-12-15T01:30:48.829Z,14.60
2022-12-15T01:33:55.801Z,17.10
2022-12-15T01:36:45.789Z,16.88
2022-12-15T01:39:56.166Z,16.48
2022-12-15T01:42:26.734Z,14.50
2022-12-15T01:45:35.240Z,16.73
2022-12-15T01:48:14.081Z,15.02
2022-12-15T01:51:19.220Z,15.50
2022-12-15T01:54:10.416Z,17.98
2022-12-15T01:56:50.722Z,17.38
2022-12-15T01:59:53.102Z,19.77
2022-12-15T02:02:44.385Z,18.05
2022-12-15T02:05:38.037Z,17.25
2022-12-15T02:08:28.470Z,18.17
2022-12-15T02:11:33.101Z,20.30
2022-12-15T02:14:46.308Z,17.35
2022-12-15T02:17:30.405Z,20.00
2022-12-15T02:20:05.737Z,21.27
2022-12-15T02:23:28.908Z,22.80
2022-12-15T02:26:08.540Z,22.25
2022-12-15T02:28:49.929Z,19.75
2022-12-15T02:31:50.510Z,22.35
2022-12-15T02:34:49.587Z,20.20
2022-12-15T02:37:51.175Z,21.35
2022-12-15T02:41:00.801Z,21.88
2022-12-15T02:43:41.719Z,22.08
2022-12-15T02:46:36.590Z,21.00
2022-12-15T02:49:50.408Z,23.52
2022-12-15T02:52:44.539Z,25.70
2022-12-15T02:55:25.145Z,24.98
2022-12-15T02:58:48.019Z,26.92
2022-12-15T03:01:52.377Z,28.35
2022-12-15T03:04:22.558Z,22.30
2022-12-15T03:07:13.070Z,24.38
2022-12-15T03:10:14.591Z,27.10
2022-12-15T03:13:07.035Z,23.95
2022-12-15T03:16:04.474Z,26.13
2022-12-15T03:19:07.326Z,22.33
2022-12-15T03:22:00.574Z,25.60
2022-12-15T03:24:50.072Z,24.90
2022-12-15T03:27:30.011Z,30.85
2022-12-15T03:30:06.117Z,27.05
2022-12-15T03:32:57.100Z,29.70
2022-12-15T03:35:51.415Z,52.42
2022-12-15T03:38:42.457Z,26.27
2022-12-15T03:41:33.971Z,24.95
2022-12-15T03:44:20.185Z,27.10
2022-12-15T03:47:11.432Z,28.73
2022-12-15T03:49:42.465Z,32.20
2022-12-15T03:52:39.332Z,32.08
2022-12-15T03:55:26.370Z,26.15
2022-12-15T03:58:00.176Z,24.13
2022-12-15T04:00:49.637Z,26.70
2022-12-15T04:03:47.773Z,26.30
2022-12-15T04:06:37.441Z,23.60
2022-12-15T04:09:26.606Z,26.42
2022-12-15T04:12:15.240Z,29.65
2022-12-15T04:15:24.271Z,28.92
2022-12-15T04:18:16.579Z,27.88
2022-12-15T04:21:00.658Z,28.33
2022-12-15T04:24:07.665Z,26.65
2022-12-15T04:27:13.511Z,28.45
2022-12-15T04:30:12.022Z,25.90
2022-12-15T04:32:59.049Z,29.77
2022-12-15T04:36:08.657Z,27.92
2022-12-15T04:39:23.965Z,31.50
2022-12-15T04:42:14.562Z,30.85
2022-12-15T04:45:04.415Z,28.88
2022-12-15T04:47:54.302Z,27.50
2022-12-15T04:51:02.151Z,26.17
2022-12-15T04:54:27.980Z,28.75
2022-12-15T04:57:43.665Z,24.50
2022-12-15T05:00:32.839Z,22.40
2022-12-15T05:03:25.955Z,25.40
2022-12-15T05:06:36.509Z,27.00
2022-12-15T05:10:07.234Z,25.40
2022-12-15T05:13:15.275Z,27.88
2022-12-15T05:16:06.562Z,27.33
2022-12-15T05:19:13.307Z,27.48
2022-12-15T05:22:30.569Z,26.10
2022-12-15T05:25:17.382Z,23.48
2022-12-15T05:28:26.788Z,23.02
2022-12-15T05:31:34.025Z,24.67
2022-12-15T05:34:06.751Z,20.88
2022-12-15T05:36:56.719Z,22.95
2022-12-15T05:39:47.515Z,20.40
2022-12-15T05:44:32.930Z,19.75
2022-12-15T05:47:34.111Z,17.35
2022-12-15T05:50:12.137Z,20.83
2022-12-15T05:52:42.066Z,20.17
2022-12-15T05:55:34.884Z,20.35
2022-12-15T05:58:03.078Z,18.95
2022-12-15T06:01:12.826Z,19.95
2022-12-15T06:03:42.339Z,19.67
2022-12-15T06:06:13.129Z,20.45
2022-12-15T06:09:04.894Z,23.92
2022-12-15T06:11:33.475Z,19.98
2022-12-15T06:14:06.323Z,21.13
2022-12-15T06:17:13.079Z,23.05
2022-12-15T06:22:30.414Z,19.40
2022-12-15T06:24:58.727Z,21.48
2022-12-15T06:27:31.490Z,28.70
2022-12-15T06:30:02.488Z,20.88
2022-12-15T06:32:36.496Z,20.98
2022-12-15T06:35:09.247Z,18.85
2022-12-15T06:37:38.512Z,23.73
2022-12-15T06:43:56.423Z,23.92
2022-12-15T06:46:29.062Z,26.17
2022-12-15T06:48:58.743Z,42.40
2022-12-15T06:51:50.388Z,43.78
2022-12-15T06:54:19.403Z,40.83
2022-12-15T06:56:50.040Z,31.52
2022-12-15T06:59:38.449Z,28.45
2022-12-15T07:02:11.601Z,27.38
2022-12-15T07:04:39.895Z,25.45
2022-12-15T07:07:10.932Z,26.33
2022-12-15T07:09:52.062Z,26.92
2022-12-15T07:12:24.703Z,27.63
2022-12-15T07:14:55.068Z,28.20
2022-12-15T07:17:29.046Z,29.13
2022-12-15T07:20:04.048Z,27.88
2022-12-15T07:22:38.194Z,23.13
2022-12-15T07:25:33.014Z,28.73
2022-12-15T07:28:01.557Z,24.73
2022-12-15T07:30:35.088Z,22.38
2022-12-15T07:33:18.831Z,21.92
2022-12-15T07:36:51.839Z,25.00
2022-12-15T07:39:22.590Z,20.10
2022-12-15T07:41:50.848Z,18.60
2022-12-15T07:44:18.995Z,17.75
2022-12-15T07:46:52.992Z,18.10
2022-12-15T07:49:27.349Z,19.65
2022-12-15T07:51:59.023Z,21.27
2022-12-15T07:54:27.470Z,19.55
2022-12-15T07:56:55.966Z,16.67
2022-12-15T07:59:23.984Z,17.45
2022-12-15T08:01:52.768Z,18.85
2022-12-15T08:04:21.176Z,19.00
2022-12-15T08:06:49.503Z,37.40
2022-12-15T08:09:17.599Z,22.17
2022-12-15T08:11:46.425Z,18.02
2022-12-15T08:14:18.000Z,24.42
2022-12-15T08:16:47.290Z,22.15
2022-12-15T08:19:17.322Z,23.40
2022-12-15T08:21:47.164Z,17.65
2022-12-15T08:24:15.973Z,14.18
2022-12-15T08:26:50.083Z,10.60
2022-12-15T08:29:52.121Z,11.88
2022-12-15T08:32:28.299Z,15.43
2022-12-15T08:34:56.564Z,15.02
2022-12-15T08:37:24.521Z,13.80
2022-12-15T08:39:52.798Z,14.30
2022-12-15T08:42:21.082Z,17.42
2022-12-15T08:44:50.690Z,10.35
2022-12-15T08:47:19.032Z,11.57
2022-12-15T08:49:46.988Z,12.98
2022-12-15T08:52:15.277Z,15.45
2022-12-15T08:54:43.662Z,16.00
2022-12-15T08:57:12.130Z,20.13
2022-12-15T08:59:40.197Z,11.95
2022-12-15T09:02:12.103Z,15.05
2022-12-15T09:04:41.333Z,13.82
2022-12-15T09:07:09.341Z,12.25
2022-12-15T09:09:37.919Z,9.73
2022-12-15T09:12:06.535Z,10.68
2022-12-15T09:14:34.769Z,11.90
2022-12-15T09:17:03.084Z,12.82
2022-12-15T09:19:31.288Z,17.75
2022-12-15T09:21:59.852Z,23.85
2022-12-15T09:24:34.745Z,16.02
2022-12-15T09:27:16.848Z,16.77
2022-12-15T09:29:45.065Z,17.25
2022-12-15T09:32:14.636Z,16.35
2022-12-15T09:34:42.877Z,12.00
2022-12-15T09:37:10.916Z,19.98
2022-12-15T09:39:40.656Z,9.70
2022-12-15T09:42:42.655Z,8.52
2022-12-15T09:45:21.464Z,9.35
2022-12-15T09:48:11.001Z,14.60
2022-12-15T09:50:41.866Z,13.88
2022-12-15T09:53:45.486Z,8.20
2022-12-15T09:56:08.642Z,10.48
2022-12-15T09:58:42.681Z,3.58
2022-12-15T10:01:24.862Z,9.73
2022-12-15T10:04:18.248Z,7.00
2022-12-15T10:07:06.643Z,6.63
2022-12-15T10:09:37.747Z,6.78
2022-12-15T10:12:16.911Z,9.00
2022-12-15T10:14:57.677Z,7.97
2022-12-15T10:18:02.082Z,7.53
2022-12-15T10:20:32.281Z,5.85
2022-12-15T10:23:14.832Z,10.02
2022-12-15T10:25:57.406Z,10.32
2022-12-15T10:28:55.451Z,5.93
2022-12-15T10:31:36.391Z,7.03
2022-12-15T10:34:25.147Z,5.82
2022-12-15T10:36:55.332Z,6.07
2022-12-15T10:39:42.890Z,6.68
2022-12-15T10:42:16.852Z,7.45
2022-12-15T10:44:50.711Z,5.70
2022-12-15T10:47:36.964Z,5.18
2022-12-15T10:50:37.372Z,7.82
2022-12-15T10:53:10.105Z,5.00
2022-12-15T10:55:49.743Z,7.00
2022-12-15T10:58:22.316Z,7.07
2022-12-15T11:01:08.218Z,5.55
2022-12-15T11:06:29.489Z,8.90
2022-12-15T11:09:08.037Z,8.27
2022-12-15T11:12:06.244Z,2.40
2022-12-15T11:14:51.181Z,6.93
2022-12-15T11:17:23.879Z,6.63
2022-12-15T11:20:04.864Z,4.82
2022-12-15T11:23:10.107Z,9.50
2022-12-15T11:26:24.602Z,9.77
2022-12-15T11:29:32.410Z,8.25
2022-12-15T11:32:25.938Z,4.93
2022-12-15T11:34:57.554Z,14.98
2022-12-15T11:37:39.005Z,4.15
2022-12-15T11:40:38.481Z,6.18
2022-12-15T11:43:44.426Z,5.03
2022-12-15T11:46:20.700Z,3.58
2022-12-15T11:49:23.490Z,3.35
2022-12-15T11:52:06.433Z,6.43
2022-12-15T11:57:50.436Z,4.65
2022-12-15T12:00:22.926Z,3.75
2022-12-15T12:03:41.176Z,4.93
2022-12-15T12:06:11.963Z,3.97
2022-12-15T12:08:52.194Z,2.60
2022-12-15T12:11:43.493Z,6.88
2022-12-15T12:14:27.865Z,5.57
2022-12-15T12:17:20.991Z,2.70
2022-12-15T12:20:23.477Z,4.13
2022-12-15T12:23:34.067Z,4.03
2022-12-15T12:26:54.217Z,2.50
2022-12-15T12:29:42.428Z,4.90
2022-12-15T12:32:40.932Z,4.32
2022-12-15T12:35:47.530Z,5.13
2022-12-15T12:38:32.573Z,4.65
2022-12-15T12:41:39.846Z,4.22
2022-12-15T12:44:32.845Z,5.45
2022-12-15T12:47:31.433Z,3.88
2022-12-15T12:50:13.413Z,5.65
2022-12-15T12:52:58.766Z,5.82
2022-12-15T12:55:29.951Z,4.53
2022-12-15T12:58:03.319Z,7.68
2022-12-15T13:01:17.987Z,4.70
2022-12-15T13:04:10.244Z,4.18
2022-12-15T13:06:46.990Z,6.72
2022-12-15T13:09:21.685Z,5.28
2022-12-15T13:12:20.701Z,5.25
2022-12-15T13:15:31.598Z,6.35
2022-12-15T13:18:20.886Z,5.60
2022-12-15T13:20:59.377Z,4.32
2022-12-15T13:24:01.136Z,5.22
2022-12-15T13:26:34.140Z,2.83
2022-12-15T13:29:13.135Z,5.60
2022-12-15T13:31:53.358Z,5.43
2022-12-15T13:34:24.979Z,4.78
2022-12-15T13:36:58.388Z,5.72
2022-12-15T13:39:30.228Z,6.03
2022-12-15T13:45:10.759Z,7.10
2022-12-15T13:47:39.644Z,5.97
2022-12-15T13:50:21.206Z,7.20
2022-12-15T13:53:21.056Z,7.07
2022-12-15T13:56:05.323Z,8.20
2022-12-15T13:58:45.402Z,6.70
2022-12-15T14:01:33.336Z,5.72
2022-12-15T14:04:16.174Z,8.57
2022-12-15T14:06:52.605Z,5.07
2022-12-15T14:09:41.484Z,5.78
2022-12-15T14:12:15.925Z,4.72
2022-12-15T14:14:52.699Z,7.72
2022-12-15T14:17:39.241Z,7.10
2022-12-15T14:20:32.444Z,7.05
2022-12-15T14:23:03.284Z,6.70
2022-12-15T14:25:38.124Z,7.90
2022-12-15T14:28:31.712Z,5.65
2022-12-15T14:31:14.988Z,6.47
2022-12-15T14:33:50.737Z,7.03
2022-12-15T14:36:24.637Z,7.18
2022-12-15T14:39:23.492Z,6.95
2022-12-15T14:41:54.032Z,5.72
2022-12-15T14:44:57.392Z,4.57
2022-12-15T14:47:34.379Z,7.15
2022-12-15T14:50:29.773Z,9.77
2022-12-15T14:53:06.553Z,9.38
2022-12-15T14:55:38.341Z,8.60
2022-12-15T14:58:46.153Z,7.47
2022-12-15T15:01:35.363Z,7.63
2022-12-15T15:03:04.594Z,9.02
2022-12-15T15:04:30.103Z,9.05
2022-12-15T15:07:09.083Z,5.80
2022-12-15T15:09:51.385Z,8.13
2022-12-15T15:12:46.434Z,9.38
2022-12-15T15:15:18.609Z,6.10
2022-12-15T15:17:55.383Z,7.38
2022-12-15T15:23:29.625Z,9.00
2022-12-15T15:26:08.627Z,10.23
2022-12-15T15:29:00.680Z,8.85
2022-12-15T15:31:41.249Z,7.55
2022-12-15T15:34:11.813Z,7.53
2022-12-15T15:36:45.856Z,9.13
2022-12-15T15:39:42.113Z,7.80
2022-12-15T15:45:31.687Z,8.35
2022-12-15T15:49:58.070Z,8.10
2022-12-15T15:52:50.192Z,9.45
2022-12-15T15:55:39.422Z,9.90
2022-12-15T15:59:42.931Z,10.23
2022-12-15T16:02:20.375Z,10.13
2022-12-15T16:08:37.617Z,10.10
2022-12-15T16:11:30.022Z,10.23
2022-12-15T16:14:04.084Z,8.25
2022-12-15T16:16:34.709Z,7.88
2022-12-15T16:19:30.223Z,9.70
2022-12-15T16:22:31.187Z,9.82
2022-12-15T16:25:23.037Z,8.10
2022-12-15T16:28:02.577Z,8.18
2022-12-15T16:30:53.295Z,7.28
2022-12-15T16:33:26.119Z,11.93
2022-12-15T16:35:56.279Z,6.90
2022-12-15T16:39:45.252Z,6.75
2022-12-15T16:42:39.218Z,10.13
2022-12-15T16:45:20.294Z,7.57
2022-12-15T16:48:17.617Z,8.02
2022-12-15T16:51:33.820Z,5.60
2022-12-15T16:54:02.778Z,7.38
2022-12-15T16:56:43.937Z,8.00
2022-12-15T16:59:38.895Z,5.70
2022-12-15T17:02:31.010Z,7.95
2022-12-15T17:05:54.002Z,4.60
2022-12-15T17:08:47.896Z,5.68
2022-12-15T17:11:40.438Z,4.93
2022-12-15T17:14:12.865Z,9.07
2022-12-15T17:16:44.508Z,6.78
2022-12-15T17:20:27.515Z,6.30
2022-12-15T17:22:46.377Z,6.70
2022-12-15T17:25:37.419Z,6.88
2022-12-15T17:28:20.747Z,8.63
2022-12-15T17:31:35.705Z,9.77
2022-12-15T17:34:32.406Z,7.65
2022-12-15T17:40:27.524Z,9.05
2022-12-15T17:43:35.659Z,5.40
2022-12-15T17:46:36.137Z,8.95
2022-12-15T17:49:11.796Z,8.13
2022-12-15T17:51:46.804Z,9.43
2022-12-15T17:54:41.463Z,7.10
2022-12-15T17:57:13.268Z,7.28
2022-12-15T17:59:45.210Z,6.45
2022-12-15T18:02:17.080Z,8.48
2022-12-15T18:04:51.365Z,8.07
2022-12-15T18:07:24.128Z,3.58
2022-12-15T18:09:55.634Z,5.22
2022-12-15T18:12:32.089Z,8.40
2022-12-15T18:15:03.138Z,8.88
2022-12-15T18:17:34.659Z,8.93
2022-12-15T18:20:05.143Z,9.32
2022-12-15T18:22:33.262Z,6.80
2022-12-15T18:25:01.818Z,10.10
2022-12-15T18:27:34.077Z,5.10
2022-12-15T18:30:03.756Z,6.20
2022-12-15T18:32:40.878Z,7.07
2022-12-15T18:35:25.922Z,6.43
2022-12-15T18:37:57.705Z,8.90
2022-12-15T18:40:34.614Z,7.50
2022-12-15T18:46:08.640Z,5.53
2022-12-15T18:48:40.001Z,4.63
2022-12-15T18:51:40.155Z,7.35
2022-12-15T18:54:23.854Z,5.70
2022-12-15T18:57:34.473Z,4.47
2022-12-15T19:00:41.623Z,7.57
2022-12-15T19:03:11.256Z,5.05
2022-12-15T19:05:40.820Z,6.38
2022-12-15T19:08:31.290Z,7.15
2022-12-15T19:11:14.698Z,5.18
2022-12-15T19:13:50.300Z,5.75
2022-12-15T19:17:08.351Z,6.05
2022-12-15T19:20:03.758Z,5.45
2022-12-15T19:22:34.387Z,9.32
2022-12-15T19:25:32.581Z,5.03
2022-12-15T19:28:11.533Z,6.25
2022-12-15T19:30:55.707Z,4.20
2022-12-15T19:33:30.561Z,3.45
2022-12-15T19:36:41.977Z,6.90
2022-12-15T19:39:39.729Z,5.78
2022-12-15T19:43:04.427Z,6.32
2022-12-15T19:45:34.887Z,6.72
2022-12-15T19:48:17.608Z,6.93
2022-12-15T19:50:56.585Z,7.90
2022-12-15T19:53:36.234Z,6.20
2022-12-15T19:56:15.862Z,7.53
2022-12-15T19:58:46.112Z,7.75
2022-12-15T20:01:29.496Z,6.50
2022-12-15T20:04:29.714Z,7.07
2022-12-15T20:07:33.655Z,8.73
2022-12-15T20:12:34.282Z,4.60
2022-12-15T20:15:21.910Z,3.95
2022-12-15T20:17:58.248Z,5.95
2022-12-15T20:20:31.261Z,7.05
2022-12-15T20:23:07.706Z,6.15
2022-12-15T20:25:43.789Z,6.53
2022-12-15T20:28:32.880Z,5.57
2022-12-15T20:31:00.739Z,7.43
2022-12-15T20:33:34.464Z,8.32
2022-12-15T20:36:25.874Z,7.55
2022-12-15T20:38:58.636Z,5.40
2022-12-15T20:41:38.056Z,6.05
2022-12-15T20:44:11.931Z,6.38
2022-12-15T20:46:52.117Z,6.15
2022-12-15T20:49:22.442Z,8.65
2022-12-15T20:51:51.125Z,6.32
2022-12-15T20:54:22.375Z,6.18
2022-12-15T20:56:51.066Z,10.45
2022-12-15T20:59:19.365Z,6.28
2022-12-15T21:01:47.666Z,9.15
2022-12-15T21:04:28.768Z,9.02
2022-12-15T21:06:57.043Z,10.43
2022-12-15T21:09:25.262Z,4.82
2022-12-15T21:11:55.308Z,6.90
2022-12-15T21:14:26.491Z,8.55
2022-12-15T21:16:55.585Z,6.18
2022-12-15T21:19:23.745Z,6.10
2022-12-15T21:21:54.933Z,6.97
2022-12-15T21:24:26.459Z,7.50
2022-12-15T21:26:55.884Z,5.90
2022-12-15T21:29:26.695Z,3.80
2022-12-15T21:31:54.830Z,5.20
2022-12-15T21:34:24.660Z,2.47
2022-12-15T21:36:54.778Z,2.88
2022-12-15T21:39:29.958Z,2.72
2022-12-15T21:42:08.390Z,4.93
2022-12-15T21:44:36.197Z,4.43
2022-12-15T21:47:22.448Z,3.80
2022-12-15T21:49:53.351Z,4.45
2022-12-15T21:52:26.916Z,2.60
2022-12-15T21:54:54.834Z,4.93
2022-12-15T21:57:22.865Z,5.70
2022-12-15T21:59:50.772Z,4.82
2022-12-15T22:02:29.812Z,4.75
2022-12-15T22:05:00.190Z,3.92
2022-12-15T22:07:28.388Z,3.63
2022-12-15T22:09:57.404Z,3.92
2022-12-15T22:12:25.482Z,4.82
2022-12-15T22:14:55.697Z,4.45
2022-12-15T22:17:27.024Z,3.20
2022-12-15T22:19:55.168Z,2.83
2022-12-15T22:22:31.564Z,3.05
2022-12-15T22:25:24.289Z,4.03
2022-12-15T22:27:52.840Z,3.20
2022-12-15T22:30:27.630Z,4.30
2022-12-15T22:32:55.525Z,3.35
2022-12-15T22:35:26.514Z,2.20
2022-12-15T22:37:55.256Z,2.78
2022-12-15T22:40:24.875Z,5.40
2022-12-15T22:42:58.361Z,3.85
2022-12-15T22:45:29.691Z,3.63
2022-12-15T22:47:58.170Z,4.25
2022-12-15T22:50:27.144Z,3.97
2022-12-15T22:52:55.364Z,4.90
2022-12-15T22:55:24.802Z,5.28
2022-12-15T22:58:06.787Z,5.18
2022-12-15T23:00:34.766Z,2.95
2022-12-15T23:03:03.036Z,5.10
2022-12-15T23:05:31.110Z,4.18
2022-12-15T23:07:59.397Z,4.80
2022-12-15T23:10:45.643Z,5.68
2022-12-15T23:13:13.502Z,4.80
2022-12-15T23:15:59.849Z,3.88
2022-12-15T23:18:27.759Z,4.25
2022-12-15T23:20:55.991Z,3.25
2022-12-15T23:23:23.989Z,2.90
2022-12-15T23:25:52.499Z,3.25
2022-12-15T23:28:22.504Z,4.10
2022-12-15T23:30:54.973Z,4.50
2022-12-15T23:33:23.416Z,5.05
2022-12-15T23:35:57.429Z,4.60
2022-12-15T23:38:26.798Z,5.70
2022-12-15T23:40:57.129Z,6.78
2022-12-15T23:43:26.906Z,5.38
2022-12-15T23:46:03.398Z,6.68
2022-12-15T23:48:37.391Z,7.70
2022-12-15T23:51:17.392Z,7.88
2022-12-15T23:53:46.875Z,7.93
2022-12-15T23:56:17.561Z,8.15
2022-12-15T23:58:47.362Z,6.00
